LHBP/BUD METAR and TAF weather

Enter ICAO airport designator
Station Type Date Time Source
LHBP METAR 2021/09/25 11:30 UTC NOAA

LHBP 251130Z 23009KT 190V260 9999 FEW047 24/12 Q1020 NOSIG


Station Type Date Time Source
LHBP Decoded METAR 2021/09/25 11:30 UTC NOAA

Budapest / Ferihegy, Hungary (LHBP) 47-26N 019-16E 185M
Sep 25, 2021 - 07:30 AM EDT / 2021.09.25 1130 UTC
Wind: from the SW (230 degrees) at 10 MPH (9 KT) (direction variable):0
Visibility: greater than 7 mile(s):0
Sky conditions: mostly clear
Temperature: 75 F (24 C)
Dew Point: 53 F (12 C)
Relative Humidity: 46%
Pressure (altimeter): 30.12 in. Hg (1020 hPa)
ob: LHBP 251130Z 23009KT 190V260 9999 FEW047 24/12 Q1020 NOSIG
cycle: 11

Station Type Date Time Source
LHBP TAF 2021/09/25 12:27 UTC NOAA

TAF TAF LHBP 251115Z 2512/2612 24007KT 9999 FEW046
BECMG 2512/2514 CAVOK
BECMG 2515/2517 18005KT
BECMG 2517/2519 VRB03KT
TEMPO 2600/2606 MIFG
BECMG 2605/2607 10005KT
BECMG 2608/2610 15006KT

Example: see airport list